| time (UTC) | temp C | wind direction | speed KPH | gust KPH | rain 1hr cm | rain 24hr cm | rain mn cm | humidity % | barometer mb |
| 20260507104040 | 12 | 252 | 3.2 | 8.0 | 0.00 | 0.00 | 0.00 | 69 | 1016.1 |
| 20260507104033 | 12 | 252 | 3.2 | 8.0 | 0.00 | 0.00 | 0.00 | 71 | 1016.2 |
| 20260507103010 | 12 | 39 | 3.2 | 9.7 | 0.00 | 0.00 | 0.00 | 72 | 1016.2 |
| 20260507102045 | 12 | 39 | 3.2 | 9.7 | 0.00 | 0.00 | 0.00 | 72 | 1016.2 |
| 20260507102039 | 11 | 39 | 3.2 | 9.7 | 0.00 | 0.00 | 0.00 | 73 | 1016.2 |
| 20260507101043 | 11 | 336 | 1.6 | 6.4 | 0.00 | 0.00 | 0.00 | 73 | 1016.2 |
| 20260507101036 | 11 | 336 | 1.6 | 6.4 | 0.00 | 0.00 | 0.00 | 73 | 1016.2 |
| 20260507100023 | 11 | 91 | 3.2 | 6.4 | 0.00 | 0.00 | 0.00 | 73 | 1016.2 |
| 20260507100021 | 11 | 91 | 3.2 | 6.4 | 0.00 | 0.00 | 0.00 | 73 | 1016.1 |
| 20260507095046 | 11 | 91 | 3.2 | 6.4 | 0.00 | 0.00 | 0.00 | 73 | 1016.1 |
| 20260507095040 | 12 | 91 | 3.2 | 6.4 | 0.00 | 0.00 | 0.00 | 72 | 1016.0 |
| 20260507094043 | 12 | 78 | 3.2 | 8.0 | 0.00 | 0.00 | 0.00 | 72 | 1016.0 |
| 20260507094037 | 11 | 78 | 3.2 | 8.0 | 0.00 | 0.00 | 0.00 | 73 | 1015.9 |
| 20260507093039 | 11 | 69 | 3.2 | 8.0 | 0.00 | 0.00 | 0.00 | 73 | 1015.9 |
| 20260507093032 | 11 | 69 | 3.2 | 8.0 | 0.00 | 0.00 | 0.00 | 74 | 1015.9 |
| 20260507092042 | 11 | 53 | 3.2 | 6.4 | 0.00 | 0.03 | 0.00 | 74 | 1015.9 |
| 20260507092037 | 11 | 53 | 3.2 | 6.4 | 0.00 | 0.03 | 0.00 | 73 | 1015.8 |
| 20260507091039 | 11 | 38 | 3.2 | 6.4 | 0.00 | 0.03 | 0.00 | 73 | 1015.8 |
| 20260507090038 | 11 | 340 | 1.6 | 4.8 | 0.00 | 0.03 | 0.00 | 74 | 1015.7 |
| 20260507085005 | 11 | 75 | 3.2 | 4.8 | 0.00 | 0.03 | 0.00 | 74 | 1015.7 |
| 20260507085003 | 11 | 75 | 3.2 | 4.8 | 0.00 | 0.03 | 0.00 | 74 | 1015.7 |
| 20260507084042 | 11 | 75 | 3.2 | 4.8 | 0.00 | 0.03 | 0.00 | 74 | 1015.7 |
| 20260507084037 | 11 | 75 | 3.2 | 4.8 | 0.00 | 0.03 | 0.00 | 74 | 1015.7 |
| 20260507083016 | 11 | 52 | 1.6 | 4.8 | 0.00 | 0.03 | 0.00 | 74 | 1015.7 |
| 20260507083014 | 11 | 52 | 1.6 | 4.8 | 0.00 | 0.03 | 0.00 | 74 | 1015.6 |
| 20260507082015 | 10 | 315 | 1.6 | 4.8 | 0.00 | 0.03 | 0.00 | 75 | 1015.6 |
| 20260507081040 | 10 | 315 | 1.6 | 4.8 | 0.00 | 0.03 | 0.00 | 75 | 1015.6 |
| 20260507081036 | 10 | 315 | 1.6 | 4.8 | 0.00 | 0.03 | 0.00 | 78 | 1015.6 |
| 20260507080044 | 10 | 312 | 1.6 | 6.4 | 0.00 | 0.03 | 0.00 | 78 | 1015.6 |
| 20260507080039 | 10 | 312 | 1.6 | 6.4 | 0.00 | 0.03 | 0.00 | 78 | 1015.5 |
| 20260507075047 | 10 | 282 | 4.8 | 8.0 | 0.00 | 0.03 | 0.00 | 78 | 1015.5 |
| 20260507075041 | 10 | 282 | 4.8 | 8.0 | 0.00 | 0.03 | 0.00 | 79 | 1015.4 |
| 20260507074044 | 10 | 276 | 3.2 | 6.4 | 0.00 | 0.03 | 0.00 | 79 | 1015.4 |
| 20260507074039 | 10 | 276 | 3.2 | 6.4 | 0.00 | 0.03 | 0.00 | 79 | 1015.2 |
| 20260507073047 | 10 | 271 | 4.8 | 8.0 | 0.00 | 0.03 | 0.00 | 79 | 1015.2 |
| 20260507073042 | 10 | 271 | 4.8 | 8.0 | 0.00 | 0.03 | 0.00 | 81 | 1015.1 |
| 20260507072040 | 10 | 269 | 4.8 | 9.7 | 0.00 | 0.03 | 0.00 | 81 | 1015.1 |
| 20260507072034 | 9 | 269 | 4.8 | 9.7 | 0.00 | 0.03 | 0.00 | 83 | 1015.2 |
| 20260507071022 | 9 | 283 | 3.2 | 6.4 | 0.00 | 0.03 | 0.00 | 83 | 1015.2 |
| 20260507071020 | 9 | 265 | 4.8 | 8.0 | 0.00 | 0.03 | 0.00 | 84 | 1015.2 |
| 20260507070012 | 8 | 277 | 1.6 | 4.8 | 0.00 | 0.03 | 0.00 | 85 | 1015.1 |
| 20260507065016 | 8 | 263 | 3.2 | 6.4 | 0.00 | 0.03 | 0.00 | 85 | 1015.1 |
| 20260507064044 | 8 | 263 | 3.2 | 6.4 | 0.00 | 0.03 | 0.00 | 85 | 1015.1 |
| 20260507064039 | 8 | 263 | 3.2 | 6.4 | 0.00 | 0.03 | 0.00 | 86 | 1015.1 |
| 20260507063034 | 8 | 277 | 4.8 | 8.0 | 0.00 | 0.03 | 0.00 | 86 | 1015.1 |
| 20260507063029 | 8 | 277 | 4.8 | 8.0 | 0.00 | 0.03 | 0.00 | 86 | 1015.0 |
| 20260507062011 | 8 | 266 | 3.2 | 8.0 | 0.00 | 0.03 | 0.00 | 86 | 1014.9 |
| 20260507061022 | 8 | 266 | 3.2 | 8.0 | 0.00 | 0.03 | 0.00 | 86 | 1014.9 |
| 20260507060015 | 8 | 265 | 6.4 | 9.7 | 0.00 | 0.05 | 0.00 | 86 | 1014.9 |
| 20260507055015 | 8 | 271 | 4.8 | 8.0 | 0.00 | 0.05 | 0.00 | 87 | 1014.7 |
| 20260507054012 | 8 | 264 | 4.8 | 8.0 | 0.00 | 0.05 | 0.00 | 87 | 1014.7 |
| 20260507053041 | 8 | 264 | 4.8 | 8.0 | 0.00 | 0.05 | 0.00 | 88 | 1014.7 |
| 20260507053035 | 7 | 264 | 4.8 | 8.0 | 0.00 | 0.05 | 0.00 | 88 | 1014.6 |
| 20260507052043 | 7 | 262 | 4.8 | 8.0 | 0.00 | 0.05 | 0.00 | 88 | 1014.6 |
| 20260507052039 | 7 | 262 | 4.8 | 8.0 | 0.00 | 0.05 | 0.00 | 88 | 1014.5 |
| 20260507051044 | 7 | 265 | 4.8 | 9.7 | 0.00 | 0.05 | 0.00 | 88 | 1014.4 |
| 20260507050043 | 7 | 267 | 4.8 | 9.7 | 0.00 | 0.05 | 0.00 | 88 | 1014.4 |
| 20260507050037 | 7 | 267 | 4.8 | 9.7 | 0.00 | 0.05 | 0.00 | 89 | 1014.3 |
| 20260507045023 | 7 | 272 | 4.8 | 8.0 | 0.00 | 0.05 | 0.00 | 89 | 1014.3 |
| 20260507045021 | 7 | 272 | 4.8 | 8.0 | 0.00 | 0.05 | 0.00 | 90 | 1014.3 |
| 20260507044023 | 7 | 258 | 4.8 | 8.0 | 0.00 | 0.05 | 0.00 | 90 | 1014.3 |
| 20260507043037 | 7 | 258 | 4.8 | 8.0 | 0.00 | 0.05 | 0.00 | 90 | 1014.0 |
| 20260507042011 | 7 | 258 | 4.8 | 8.0 | 0.00 | 0.05 | 0.00 | 90 | 1014.0 |
| 20260507041041 | 7 | 258 | 4.8 | 8.0 | 0.00 | 0.05 | 0.00 | 87 | 1013.8 |
| 20260507035031 | 7 | 265 | 4.8 | 6.4 | 0.00 | 0.05 | 0.00 | 87 | 1013.7 |
| 20260507034012 | 7 | 261 | 6.4 | 9.7 | 0.00 | 0.05 | 0.00 | 87 | 1013.7 |
| 20260507032005 | 7 | 272 | 3.2 | 4.8 | 0.00 | 0.05 | 0.00 | 86 | 1013.6 |
| 20260507031039 | 7 | 272 | 3.2 | 4.8 | 0.00 | 0.05 | 0.00 | 86 | 1013.5 |
| 20260507031033 | 7 | 272 | 3.2 | 4.8 | 0.00 | 0.05 | 0.00 | 85 | 1013.5 |
| 20260507030035 | 7 | 271 | 1.6 | 4.8 | 0.00 | 0.05 | 0.00 | 85 | 1013.5 |
| 20260507025039 | 7 | 266 | 3.2 | 8.0 | 0.00 | 0.05 | 0.00 | 86 | 1013.5 |
| 20260507024041 | 7 | 257 | 4.8 | 8.0 | 0.00 | 0.05 | 0.00 | 86 | 1013.4 |
| 20260507023036 | 7 | 249 | 3.2 | 6.4 | 0.00 | 0.05 | 0.00 | 87 | 1013.4 |
| 20260507022014 | 7 | 242 | 3.2 | 4.8 | 0.00 | 0.05 | 0.00 | 87 | 1013.4 |
| 20260507022012 | 7 | 242 | 3.2 | 4.8 | 0.00 | 0.05 | 0.00 | 88 | 1013.3 |
| 20260507021015 | 7 | 231 | 1.6 | 3.2 | 0.00 | 0.05 | 0.00 | 88 | 1013.3 |
| 20260507020013 | 8 | 248 | 3.2 | 4.8 | 0.00 | 0.05 | 0.00 | 87 | 1013.1 |
| 20260507015014 | 8 | 256 | 3.2 | 4.8 | 0.00 | 0.05 | 0.00 | 87 | 1013.1 |
| 20260507014041 | 8 | 256 | 3.2 | 4.8 | 0.00 | 0.05 | 0.00 | 85 | 1013.1 |
| 20260507013004 | 8 | 261 | 4.8 | 9.7 | 0.00 | 0.05 | 0.00 | 84 | 1013.0 |
| 20260507012043 | 8 | 261 | 4.8 | 9.7 | 0.00 | 0.05 | 0.00 | 84 | 1013.0 |
| 20260507012038 | 8 | 261 | 4.8 | 9.7 | 0.00 | 0.05 | 0.00 | 84 | 1012.9 |
| 20260507011036 | 8 | 261 | 4.8 | 9.7 | 0.00 | 0.05 | 0.00 | 84 | 1012.9 |
| 20260507011030 | 8 | 261 | 4.8 | 9.7 | 0.00 | 0.05 | 0.00 | 85 | 1012.8 |
| 20260507010004 | 8 | 269 | 4.8 | 9.7 | 0.00 | 0.05 | 0.00 | 85 | 1012.8 |
| 20260507005009 | 8 | 265 | 4.8 | 9.7 | 0.00 | 0.05 | 0.00 | 85 | 1012.8 |
| 20260507004011 | 8 | 258 | 4.8 | 8.0 | 0.00 | 0.05 | 0.00 | 86 | 1012.6 |
| 20260507003012 | 9 | 263 | 4.8 | 8.0 | 0.00 | 0.05 | 0.00 | 85 | 1012.6 |
| 20260507002037 | 9 | 263 | 4.8 | 8.0 | 0.00 | 0.05 | 0.00 | 85 | 1012.6 |
| 20260507001037 | 9 | 269 | 4.8 | 9.7 | 0.00 | 0.08 | 0.00 | 85 | 1012.6 |
| 20260507000010 | 9 | 249 | 3.2 | 4.8 | 0.00 | 0.08 | 0.00 | 85 | 1012.5 |
| 20260506235045 | 9 | 249 | 3.2 | 4.8 | 0.00 | 0.08 | 0.00 | 85 | 1012.5 |
| 20260506235040 | 9 | 249 | 3.2 | 4.8 | 0.00 | 0.08 | 0.00 | 84 | 1012.5 |
| 20260506234015 | 9 | 258 | 3.2 | 4.8 | 0.00 | 0.08 | 0.00 | 84 | 1012.5 |
| 20260506234013 | 9 | 262 | 4.8 | 8.0 | 0.00 | 0.08 | 0.00 | 83 | 1012.4 |
| 20260506233016 | 9 | 262 | 4.8 | 8.0 | 0.00 | 0.08 | 0.00 | 83 | 1012.4 |
| 20260506233013 | 9 | 262 | 4.8 | 8.0 | 0.00 | 0.08 | 0.00 | 84 | 1012.4 |
| 20260506231017 | 9 | 258 | 4.8 | 8.0 | 0.00 | 0.08 | 0.00 | 84 | 1012.4 |
| 20260506231015 | 9 | 258 | 4.8 | 8.0 | 0.00 | 0.08 | 0.00 | 84 | 1012.3 |
| 20260506230111 | 9 | 267 | 4.8 | 6.4 | 0.00 | 0.08 | 0.00 | 84 | 1012.3 |
| 20260506230005 | 10 | 263 | 4.8 | 8.0 | 0.00 | 0.08 | 0.00 | 83 | 1012.2 |
| 20260506225047 | 10 | 263 | 4.8 | 8.0 | 0.00 | 0.08 | 0.00 | 83 | 1012.2 |
| 20260506224036 | 10 | 262 | 4.8 | 9.7 | 0.00 | 0.08 | 0.00 | 83 | 1012.2 |
| 20260506224029 | 10 | 262 | 4.8 | 9.7 | 0.00 | 0.08 | 0.00 | 83 | 1012.1 |
| 20260506223017 | 10 | 262 | 4.8 | 11.3 | 0.00 | 0.08 | 0.00 | 83 | 1012.1 |
| 20260506223014 | 10 | 262 | 4.8 | 11.3 | 0.00 | 0.08 | 0.00 | 82 | 1012.0 |
| 20260506222007 | 10 | 262 | 6.4 | 9.7 | 0.00 | 0.08 | 0.00 | 82 | 1012.0 |
| 20260506222004 | 10 | 262 | 6.4 | 9.7 | 0.00 | 0.08 | 0.00 | 83 | 1011.9 |
| 20260506221040 | 10 | 262 | 6.4 | 9.7 | 0.00 | 0.08 | 0.00 | 83 | 1011.9 |
| 20260506221034 | 10 | 262 | 6.4 | 9.7 | 0.00 | 0.08 | 0.00 | 83 | 1011.8 |
| 20260506220047 | 10 | 258 | 4.8 | 8.0 | 0.00 | 0.08 | 0.00 | 83 | 1011.8 |
| 20260506215050 | 10 | 265 | 4.8 | 8.0 | 0.00 | 0.08 | 0.08 | 83 | 1011.8 |
| 20260506215041 | 10 | 265 | 4.8 | 8.0 | 0.00 | 0.08 | 0.08 | 83 | 1011.7 |
| 20260506214047 | 10 | 263 | 3.2 | 6.4 | 0.00 | 0.08 | 0.08 | 83 | 1011.7 |
| 20260506214040 | 10 | 263 | 3.2 | 6.4 | 0.00 | 0.08 | 0.08 | 82 | 1011.6 |
| 20260506213047 | 10 | 243 | 1.6 | 3.2 | 0.00 | 0.08 | 0.08 | 82 | 1011.6 |
| 20260506213040 | 10 | 243 | 1.6 | 3.2 | 0.00 | 0.08 | 0.08 | 80 | 1011.5 |
| 20260506212015 | 10 | 249 | 3.2 | 4.8 | 0.00 | 0.08 | 0.08 | 80 | 1011.5 |
| 20260506212013 | 10 | 257 | 4.8 | 6.4 | 0.00 | 0.08 | 0.08 | 79 | 1011.4 |
| 20260506211032 | 10 | 257 | 4.8 | 6.4 | 0.00 | 0.08 | 0.08 | 79 | 1011.4 |
| 20260506211023 | 10 | 257 | 4.8 | 6.4 | 0.00 | 0.08 | 0.08 | 80 | 1011.3 |
| 20260506210025 | 10 | 263 | 4.8 | 8.0 | 0.00 | 0.08 | 0.08 | 80 | 1011.3 |
| 20260506205005 | 10 | 276 | 3.2 | 6.4 | 0.00 | 0.08 | 0.08 | 80 | 1011.3 |
| 20260506203005 | 10 | 267 | 6.4 | 11.3 | 0.00 | 0.08 | 0.08 | 76 | 1011.1 |
| 20260506202029 | 10 | 267 | 6.4 | 11.3 | 0.00 | 0.08 | 0.08 | 77 | 1011.1 |
| 20260506202023 | 10 | 267 | 6.4 | 11.3 | 0.00 | 0.08 | 0.08 | 79 | 1011.0 |
| 20260506201046 | 10 | 270 | 4.8 | 9.7 | 0.00 | 0.08 | 0.08 | 79 | 1011.0 |
| 20260506201035 | 10 | 270 | 4.8 | 9.7 | 0.00 | 0.08 | 0.08 | 81 | 1010.9 |
| 20260506200005 | 10 | 255 | 3.2 | 4.8 | 0.00 | 0.08 | 0.08 | 81 | 1010.9 |
| 20260506195009 | 10 | 225 | 1.6 | 4.8 | 0.00 | 0.08 | 0.08 | 84 | 1010.6 |
| 20260506194042 | 10 | 225 | 1.6 | 4.8 | 0.00 | 0.08 | 0.08 | 84 | 1010.6 |
| 20260506194033 | 10 | 225 | 1.6 | 4.8 | 0.00 | 0.08 | 0.08 | 83 | 1010.5 |
| 20260506193034 | 11 | 223 | 0.0 | 3.2 | 0.00 | 0.08 | 0.08 | 81 | 1010.3 |
| 20260506192007 | 11 | 272 | 4.8 | 8.0 | 0.00 | 0.08 | 0.08 | 81 | 1010.3 |
| 20260506192005 | 11 | 272 | 4.8 | 8.0 | 0.00 | 0.08 | 0.08 | 79 | 1010.3 |
| 20260506191008 | 11 | 272 | 6.4 | 11.3 | 0.00 | 0.08 | 0.08 | 79 | 1010.3 |
| 20260506190040 | 11 | 272 | 6.4 | 11.3 | 0.00 | 0.10 | 0.08 | 78 | 1010.0 |
| 20260506185015 | 11 | 273 | 6.4 | 11.3 | 0.00 | 0.15 | 0.08 | 78 | 1010.0 |
| 20260506184039 | 11 | 272 | 6.4 | 9.7 | 0.00 | 0.15 | 0.08 | 77 | 1009.9 |
| 20260506184033 | 11 | 272 | 6.4 | 9.7 | 0.00 | 0.15 | 0.08 | 77 | 1009.8 |
| 20260506183024 | 11 | 290 | 4.8 | 12.9 | 0.00 | 0.23 | 0.08 | 78 | 1009.6 |
| 20260506182013 | 11 | 280 | 4.8 | 9.7 | 0.00 | 0.23 | 0.08 | 77 | 1009.4 |
| 20260506181049 | 11 | 280 | 4.8 | 9.7 | 0.00 | 0.33 | 0.08 | 77 | 1009.4 |
| 20260506181042 | 12 | 280 | 4.8 | 9.7 | 0.00 | 0.33 | 0.08 | 77 | 1009.3 |
| 20260506180006 | 12 | 287 | 4.8 | 8.0 | 0.00 | 0.58 | 0.08 | 77 | 1009.3 |
| 20260506175046 | 12 | 287 | 4.8 | 8.0 | 0.00 | 0.71 | 0.08 | 76 | 1009.1 |
| 20260506175040 | 12 | 287 | 4.8 | 8.0 | 0.00 | 0.71 | 0.08 | 75 | 1009.0 |
| 20260506174015 | 12 | 292 | 4.8 | 9.7 | 0.00 | 0.86 | 0.08 | 75 | 1009.0 |
| 20260506174013 | 12 | 292 | 4.8 | 9.7 | 0.00 | 0.86 | 0.08 | 76 | 1008.9 |
| 20260506173042 | 12 | 292 | 4.8 | 9.7 | 0.00 | 0.94 | 0.08 | 76 | 1008.9 |
| 20260506173036 | 12 | 292 | 4.8 | 9.7 | 0.00 | 0.94 | 0.08 | 76 | 1008.8 |
| 20260506172044 | 12 | 276 | 6.4 | 14.5 | 0.00 | 0.99 | 0.08 | 76 | 1008.8 |
| 20260506172037 | 12 | 276 | 6.4 | 14.5 | 0.00 | 0.99 | 0.08 | 76 | 1008.7 |
| 20260506171011 | 12 | 295 | 4.8 | 11.3 | 0.00 | 0.99 | 0.08 | 76 | 1008.7 |
| 20260506170012 | 12 | 284 | 6.4 | 11.3 | 0.00 | 0.99 | 0.08 | 76 | 1008.7 |
| 20260506170010 | 12 | 284 | 6.4 | 11.3 | 0.00 | 0.99 | 0.08 | 78 | 1008.7 |
| 20260506165040 | 12 | 284 | 6.4 | 11.3 | 0.00 | 0.99 | 0.08 | 78 | 1008.7 |
| 20260506165033 | 12 | 284 | 6.4 | 11.3 | 0.00 | 0.99 | 0.08 | 79 | 1008.6 |
| 20260506164024 | 12 | 272 | 6.4 | 12.9 | 0.00 | 0.99 | 0.08 | 79 | 1008.5 |
| 20260506163012 | 12 | 288 | 3.2 | 9.7 | 0.00 | 0.99 | 0.08 | 79 | 1008.6 |
| 20260506162047 | 12 | 288 | 3.2 | 9.7 | 0.00 | 0.99 | 0.08 | 79 | 1008.6 |
| 20260506162040 | 12 | 288 | 3.2 | 9.7 | 0.00 | 0.99 | 0.08 | 79 | 1008.6 |
| 20260506161045 | 12 | 277 | 4.8 | 9.7 | 0.00 | 0.99 | 0.08 | 79 | 1008.6 |
| 20260506161039 | 12 | 277 | 4.8 | 9.7 | 0.00 | 0.99 | 0.08 | 79 | 1008.6 |
| 20260506160042 | 12 | 276 | 4.8 | 9.7 | 0.00 | 0.99 | 0.08 | 79 | 1008.5 |
| 20260506155033 | 12 | 277 | 4.8 | 8.0 | 0.00 | 0.99 | 0.08 | 79 | 1008.6 |
| 20260506154013 | 12 | 290 | 4.8 | 11.3 | 0.00 | 0.99 | 0.08 | 79 | 1008.6 |
| 20260506154011 | 12 | 290 | 4.8 | 11.3 | 0.00 | 0.99 | 0.08 | 80 | 1008.6 |
| 20260506153007 | 12 | 288 | 6.4 | 12.9 | 0.00 | 0.99 | 0.08 | 80 | 1008.5 |
| 20260506152009 | 12 | 285 | 4.8 | 8.0 | 0.00 | 0.99 | 0.08 | 80 | 1008.5 |
| 20260506151039 | 12 | 285 | 4.8 | 8.0 | 0.00 | 0.99 | 0.08 | 79 | 1008.4 |
| 20260506151033 | 12 | 285 | 4.8 | 8.0 | 0.00 | 0.99 | 0.08 | 80 | 1008.3 |
| 20260506150012 | 12 | 280 | 6.4 | 14.5 | 0.00 | 0.99 | 0.08 | 80 | 1008.3 |
| 20260506145045 | 12 | 280 | 6.4 | 14.5 | 0.00 | 0.99 | 0.08 | 81 | 1008.2 |
| 20260506145038 | 12 | 280 | 6.4 | 14.5 | 0.00 | 0.99 | 0.08 | 81 | 1008.1 |
| 20260506144015 | 12 | 283 | 6.4 | 12.9 | 0.00 | 0.99 | 0.08 | 81 | 1008.1 |
| 20260506143022 | 12 | 283 | 6.4 | 12.9 | 0.00 | 0.99 | 0.08 | 80 | 1007.9 |
| 20260506141004 | 12 | 262 | 6.4 | 11.3 | 0.00 | 0.99 | 0.08 | 81 | 1007.9 |
| 20260506140023 | 12 | 262 | 6.4 | 11.3 | 0.00 | 1.04 | 0.08 | 81 | 1007.9 |
| 20260506140016 | 12 | 262 | 6.4 | 11.3 | 0.00 | 1.04 | 0.08 | 82 | 1008.0 |
| 20260506135037 | 12 | 265 | 6.4 | 11.3 | 0.00 | 1.04 | 0.08 | 82 | 1008.0 |
| 20260506135030 | 12 | 265 | 6.4 | 11.3 | 0.00 | 1.04 | 0.08 | 84 | 1008.0 |
| 20260506134042 | 12 | 271 | 6.4 | 12.9 | 0.00 | 1.07 | 0.08 | 84 | 1008.0 |
| 20260506134035 | 12 | 271 | 6.4 | 12.9 | 0.00 | 1.07 | 0.08 | 83 | 1008.1 |
| 20260506133032 | 12 | 276 | 6.4 | 12.9 | 0.00 | 1.07 | 0.08 | 84 | 1008.0 |
| 20260506131043 | 12 | 273 | 8.0 | 14.5 | 0.00 | 1.09 | 0.08 | 84 | 1008.0 |
| 20260506131037 | 12 | 273 | 8.0 | 14.5 | 0.00 | 1.09 | 0.08 | 83 | 1007.9 |
| 20260506130012 | 12 | 279 | 6.4 | 11.3 | 0.00 | 1.09 | 0.08 | 83 | 1007.9 |
| 20260506125024 | 12 | 279 | 6.4 | 11.3 | 0.00 | 1.12 | 0.08 | 84 | 1007.8 |
| 20260506124015 | 12 | 262 | 6.4 | 11.3 | 0.00 | 1.12 | 0.08 | 84 | 1007.8 |
| 20260506123042 | 12 | 262 | 6.4 | 11.3 | 0.00 | 1.12 | 0.08 | 84 | 1007.7 |
| 20260506123036 | 12 | 262 | 6.4 | 11.3 | 0.00 | 1.12 | 0.08 | 84 | 1007.6 |
| 20260506122014 | 12 | 269 | 8.0 | 14.5 | 0.00 | 1.12 | 0.08 | 85 | 1007.5 |
| 20260506121005 | 12 | 277 | 6.4 | 12.9 | 0.00 | 1.17 | 0.08 | 85 | 1007.5 |
| 20260506120042 | 12 | 277 | 6.4 | 12.9 | 0.00 | 1.17 | 0.08 | 86 | 1007.4 |
| 20260506120036 | 12 | 277 | 6.4 | 12.9 | 0.00 | 1.17 | 0.08 | 86 | 1007.3 |
| 20260506115005 | 12 | 276 | 4.8 | 9.7 | 0.00 | 1.17 | 0.08 | 86 | 1007.3 |
| 20260506114013 | 12 | 269 | 6.4 | 14.5 | 0.00 | 1.17 | 0.08 | 84 | 1007.2 |
| 20260506113009 | 12 | 265 | 6.4 | 12.9 | 0.00 | 1.19 | 0.08 | 85 | 1007.1 |
| 20260506111014 | 13 | 258 | 8.0 | 14.5 | 0.00 | 1.19 | 0.08 | 86 | 1007.1 |
| 20260506110012 | 13 | 275 | 6.4 | 14.5 | 0.00 | 1.19 | 0.08 | 86 | 1007.1 |
| 20260506105036 | 13 | 275 | 6.4 | 14.5 | 0.00 | 1.24 | 0.08 | 85 | 1007.0 |
| 20260506105029 | 13 | 275 | 6.4 | 14.5 | 0.00 | 1.24 | 0.08 | 87 | 1006.9 |